This is the latest recevied weather packets stored in our database for station/object WJ4X-13. If no packets are shown the sender has not sent any weather packets the latest 10 day(s).
| Time | Temp. | Humidity | Pressure | Rain* | Wind** | Luminosity | Snow |
|---|---|---|---|---|---|---|---|
| 1778053532 | 16.67° C | 88% | 1015.6 hPa | 0 mm | - | - | - |
| 1778047228 | 16.11° C | 86% | 1015.4 hPa | 0 mm | - | - | - |
| 1778039111 | 16.11° C | 83% | 1015.5 hPa | 0 mm | - | - | - |
| 1778038215 | 16.11° C | 79% | 1015.4 hPa | 0 mm | - | - | - |
| 1778032806 | 18.89° C | 72% | 1015 hPa | 0 mm | - | - | - |
| 1778025602 | 22.78° C | 54% | 1014.8 hPa | 0 mm | - | - | - |
| 1778022974 | 23.89° C | 50% | 1014.6 hPa | 0 mm | - | - | - |
| 1778015752 | 27.22° C | 43% | 1015 hPa | 0 mm | - | - | - |
| 1777997719 | 23.89° C | 51% | 1018.3 hPa | 0 mm | - | - | - |
| 1777995926 | 23.33° C | 58% | 1018.5 hPa | 0 mm | - | - | - |
| 1777991404 | 20.56° C | 75% | 1018.5 hPa | 0 mm | - | - | - |
| 1777986040 | 15.56° C | 90% | 1018.2 hPa | 0 mm | - | - | - |
| 1777976117 | 8.89° C | 96% | 1017.4 hPa | 0 mm | - | - | - |
| 1777971610 | 8.89° C | 94% | 1017.1 hPa | 0 mm | - | - | - |
| 1777967109 | 9.44° C | 93% | 1017.1 hPa | 0 mm | - | - | - |
| 1777956353 | 11.11° C | 88% | 1017.1 hPa | 0 mm | - | - | - |
| 1777952738 | 12.22° C | 83% | 1017.2 hPa | 0 mm | - | - | - |
| 1777951837 | 12.78° C | 82% | 1017.3 hPa | 0 mm | - | - | - |
| 1777945532 | 15.56° C | 75% | 1016.9 hPa | 0 mm | - | - | - |
| 1777931135 | 24.44° C | 51% | 1015.8 hPa | 0 mm | - | - | - |
| 1777920356 | 23.89° C | 40% | 1017.6 hPa | 0 mm | - | - | - |
| 1777919454 | 23.89° C | 43% | 1017.7 hPa | 0 mm | - | - | - |
| 1777916753 | 23.33° C | 46% | 1018.1 hPa | 0 mm | - | - | - |
| 1777914944 | 22.78° C | 53% | 1018.4 hPa | 0 mm | - | - | - |
| 1777908631 | 20° C | 58% | 1019.6 hPa | 0 mm | - | - | - |
* Rain latest hour (hover to see other rain measurements)
** Current wind speed in m/s (hover to see current wind gust speed)